sensor_id;sensor_type;location;lat;lon;timestamp;P1;durP1;ratioP1;P2;durP2;ratioP2
42244;SDS011;27912;51.828;5.688;2023-04-06T00:00:30;16.02;;;7.97;;
42244;SDS011;27912;51.828;5.688;2023-04-06T00:02:56;15.48;;;8.10;;
42244;SDS011;27912;51.828;5.688;2023-04-06T00:05:21;15.48;;;7.38;;
42244;SDS011;27912;51.828;5.688;2023-04-06T00:07:48;15.73;;;7.80;;
42244;SDS011;27912;51.828;5.688;2023-04-06T00:10:13;15.45;;;7.65;;
42244;SDS011;27912;51.828;5.688;2023-04-06T00:12:40;18.88;;;7.30;;
42244;SDS011;27912;51.828;5.688;2023-04-06T00:15:05;16.60;;;7.47;;
42244;SDS011;27912;51.828;5.688;2023-04-06T00:17:31;13.40;;;7.15;;
42244;SDS011;27912;51.828;5.688;2023-04-06T00:19:57;13.98;;;6.90;;
42244;SDS011;27912;51.828;5.688;2023-04-06T00:22:22;15.43;;;7.05;;
42244;SDS011;27912;51.828;5.688;2023-04-06T00:24:48;14.93;;;6.95;;
42244;SDS011;27912;51.828;5.688;2023-04-06T00:27:13;11.88;;;7.10;;
42244;SDS011;27912;51.828;5.688;2023-04-06T00:29:39;15.02;;;7.22;;
42244;SDS011;27912;51.828;5.688;2023-04-06T00:32:05;13.90;;;7.57;;
42244;SDS011;27912;51.828;5.688;2023-04-06T00:34:31;15.55;;;7.63;;
42244;SDS011;27912;51.828;5.688;2023-04-06T00:36:56;13.93;;;7.10;;
42244;SDS011;27912;51.828;5.688;2023-04-06T00:39:22;14.80;;;7.38;;
42244;SDS011;27912;51.828;5.688;2023-04-06T00:41:49;15.48;;;7.30;;
42244;SDS011;27912;51.828;5.688;2023-04-06T00:44:16;11.82;;;6.47;;
42244;SDS011;27912;51.828;5.688;2023-04-06T00:46:42;11.57;;;6.28;;
42244;SDS011;27912;51.828;5.688;2023-04-06T00:49:09;14.65;;;6.70;;
42244;SDS011;27912;51.828;5.688;2023-04-06T00:51:35;18.05;;;7.32;;
42244;SDS011;27912;51.828;5.688;2023-04-06T00:54:00;12.45;;;6.85;;
42244;SDS011;27912;51.828;5.688;2023-04-06T00:56:26;15.60;;;7.18;;
42244;SDS011;27912;51.828;5.688;2023-04-06T00:58:52;16.95;;;7.95;;
42244;SDS011;27912;51.828;5.688;2023-04-06T01:01:17;13.40;;;7.25;;
42244;SDS011;27912;51.828;5.688;2023-04-06T01:03:46;12.98;;;7.15;;
42244;SDS011;27912;51.828;5.688;2023-04-06T01:06:14;15.90;;;7.40;;
42244;SDS011;27912;51.828;5.688;2023-04-06T01:08:40;16.90;;;7.20;;
42244;SDS011;27912;51.828;5.688;2023-04-06T01:11:05;14.18;;;7.28;;
42244;SDS011;27912;51.828;5.688;2023-04-06T01:13:31;14.57;;;7.40;;
42244;SDS011;27912;51.828;5.688;2023-04-06T01:15:57;17.63;;;7.78;;
42244;SDS011;27912;51.828;5.688;2023-04-06T01:18:26;13.13;;;7.18;;
42244;SDS011;27912;51.828;5.688;2023-04-06T01:20:52;14.40;;;6.97;;
42244;SDS011;27912;51.828;5.688;2023-04-06T01:23:18;16.95;;;7.35;;
42244;SDS011;27912;51.828;5.688;2023-04-06T01:25:43;15.00;;;7.10;;
42244;SDS011;27912;51.828;5.688;2023-04-06T01:28:09;13.23;;;7.60;;
42244;SDS011;27912;51.828;5.688;2023-04-06T01:30:35;12.32;;;7.00;;
42244;SDS011;27912;51.828;5.688;2023-04-06T01:33:00;13.20;;;7.22;;
42244;SDS011;27912;51.828;5.688;2023-04-06T01:35:26;17.25;;;7.60;;
42244;SDS011;27912;51.828;5.688;2023-04-06T01:37:53;15.57;;;7.18;;
42244;SDS011;27912;51.828;5.688;2023-04-06T01:40:18;14.35;;;7.95;;
42244;SDS011;27912;51.828;5.688;2023-04-06T01:42:44;12.73;;;7.47;;
42244;SDS011;27912;51.828;5.688;2023-04-06T01:45:10;15.23;;;7.85;;
42244;SDS011;27912;51.828;5.688;2023-04-06T01:47:35;18.17;;;8.05;;
42244;SDS011;27912;51.828;5.688;2023-04-06T01:50:01;15.15;;;7.97;;
42244;SDS011;27912;51.828;5.688;2023-04-06T01:52:30;14.95;;;7.85;;
42244;SDS011;27912;51.828;5.688;2023-04-06T01:54:55;13.65;;;6.65;;
42244;SDS011;27912;51.828;5.688;2023-04-06T01:57:21;14.90;;;7.63;;
42244;SDS011;27912;51.828;5.688;2023-04-06T01:59:46;15.80;;;7.47;;
42244;SDS011;27912;51.828;5.688;2023-04-06T02:02:12;16.23;;;8.88;;
42244;SDS011;27912;51.828;5.688;2023-04-06T02:04:37;17.15;;;8.70;;
42244;SDS011;27912;51.828;5.688;2023-04-06T02:07:03;15.48;;;8.05;;
42244;SDS011;27912;51.828;5.688;2023-04-06T02:09:29;16.85;;;8.85;;
42244;SDS011;27912;51.828;5.688;2023-04-06T02:11:54;18.17;;;8.73;;
42244;SDS011;27912;51.828;5.688;2023-04-06T02:14:20;18.60;;;8.27;;
42244;SDS011;27912;51.828;5.688;2023-04-06T02:16:46;16.95;;;9.25;;
42244;SDS011;27912;51.828;5.688;2023-04-06T02:19:11;18.50;;;9.18;;
42244;SDS011;27912;51.828;5.688;2023-04-06T02:21:37;16.60;;;8.55;;
42244;SDS011;27912;51.828;5.688;2023-04-06T02:24:02;16.48;;;9.10;;
42244;SDS011;27912;51.828;5.688;2023-04-06T02:26:28;17.13;;;9.00;;
42244;SDS011;27912;51.828;5.688;2023-04-06T02:28:54;15.88;;;8.50;;
42244;SDS011;27912;51.828;5.688;2023-04-06T02:31:20;15.48;;;9.52;;
42244;SDS011;27912;51.828;5.688;2023-04-06T02:33:45;14.98;;;7.93;;
42244;SDS011;27912;51.828;5.688;2023-04-06T02:36:11;16.02;;;8.70;;
42244;SDS011;27912;51.828;5.688;2023-04-06T02:38:37;17.42;;;8.95;;
42244;SDS011;27912;51.828;5.688;2023-04-06T02:41:02;15.98;;;8.80;;
42244;SDS011;27912;51.828;5.688;2023-04-06T02:43:28;15.40;;;8.70;;
42244;SDS011;27912;51.828;5.688;2023-04-06T02:45:53;17.80;;;8.70;;
42244;SDS011;27912;51.828;5.688;2023-04-06T02:48:19;17.60;;;8.82;;
42244;SDS011;27912;51.828;5.688;2023-04-06T02:50:45;17.40;;;9.55;;
42244;SDS011;27912;51.828;5.688;2023-04-06T02:53:10;16.70;;;8.13;;
42244;SDS011;27912;51.828;5.688;2023-04-06T02:55:36;17.85;;;9.52;;
42244;SDS011;27912;51.828;5.688;2023-04-06T02:58:01;17.45;;;8.18;;
42244;SDS011;27912;51.828;5.688;2023-04-06T03:00:27;16.98;;;9.07;;
42244;SDS011;27912;51.828;5.688;2023-04-06T03:02:52;15.85;;;8.95;;
42244;SDS011;27912;51.828;5.688;2023-04-06T03:05:18;25.02;;;8.95;;
42244;SDS011;27912;51.828;5.688;2023-04-06T03:07:43;18.85;;;8.95;;
42244;SDS011;27912;51.828;5.688;2023-04-06T03:10:09;16.70;;;9.18;;
42244;SDS011;27912;51.828;5.688;2023-04-06T03:12:36;15.98;;;9.13;;
42244;SDS011;27912;51.828;5.688;2023-04-06T03:15:02;17.13;;;9.43;;
42244;SDS011;27912;51.828;5.688;2023-04-06T03:17:27;16.17;;;8.98;;
42244;SDS011;27912;51.828;5.688;2023-04-06T03:19:53;19.55;;;10.20;;
42244;SDS011;27912;51.828;5.688;2023-04-06T03:22:19;14.80;;;8.95;;
42244;SDS011;27912;51.828;5.688;2023-04-06T03:24:45;21.02;;;9.45;;
42244;SDS011;27912;51.828;5.688;2023-04-06T03:27:10;18.65;;;9.65;;
42244;SDS011;27912;51.828;5.688;2023-04-06T03:29:36;19.90;;;9.82;;
42244;SDS011;27912;51.828;5.688;2023-04-06T03:32:02;16.98;;;9.77;;
42244;SDS011;27912;51.828;5.688;2023-04-06T03:34:27;16.05;;;9.52;;
42244;SDS011;27912;51.828;5.688;2023-04-06T03:36:53;21.30;;;10.68;;
42244;SDS011;27912;51.828;5.688;2023-04-06T03:39:18;16.70;;;8.80;;
42244;SDS011;27912;51.828;5.688;2023-04-06T03:41:44;18.48;;;9.25;;
42244;SDS011;27912;51.828;5.688;2023-04-06T03:44:09;19.38;;;9.23;;
42244;SDS011;27912;51.828;5.688;2023-04-06T03:46:35;18.63;;;10.63;;
42244;SDS011;27912;51.828;5.688;2023-04-06T03:49:00;21.42;;;10.70;;
42244;SDS011;27912;51.828;5.688;2023-04-06T03:51:27;16.40;;;9.13;;
42244;SDS011;27912;51.828;5.688;2023-04-06T03:53:52;22.10;;;11.30;;
42244;SDS011;27912;51.828;5.688;2023-04-06T03:56:18;22.58;;;10.68;;
42244;SDS011;27912;51.828;5.688;2023-04-06T03:58:43;17.83;;;10.38;;
42244;SDS011;27912;51.828;5.688;2023-04-06T04:01:15;20.87;;;10.93;;
42244;SDS011;27912;51.828;5.688;2023-04-06T04:03:42;22.30;;;11.38;;
42244;SDS011;27912;51.828;5.688;2023-04-06T04:06:07;20.75;;;11.73;;
42244;SDS011;27912;51.828;5.688;2023-04-06T04:08:33;19.00;;;11.75;;
42244;SDS011;27912;51.828;5.688;2023-04-06T04:11:00;21.60;;;10.57;;
42244;SDS011;27912;51.828;5.688;2023-04-06T04:13:25;22.27;;;11.38;;
42244;SDS011;27912;51.828;5.688;2023-04-06T04:15:51;19.88;;;11.25;;
42244;SDS011;27912;51.828;5.688;2023-04-06T04:18:17;21.80;;;10.95;;
42244;SDS011;27912;51.828;5.688;2023-04-06T04:20:43;20.77;;;11.13;;
42244;SDS011;27912;51.828;5.688;2023-04-06T04:23:09;21.30;;;10.63;;
42244;SDS011;27912;51.828;5.688;2023-04-06T04:25:35;25.80;;;11.60;;
42244;SDS011;27912;51.828;5.688;2023-04-06T04:28:01;21.88;;;11.20;;
42244;SDS011;27912;51.828;5.688;2023-04-06T04:30:27;21.20;;;11.98;;
42244;SDS011;27912;51.828;5.688;2023-04-06T04:32:52;25.92;;;12.93;;
42244;SDS011;27912;51.828;5.688;2023-04-06T04:35:18;23.67;;;12.18;;
42244;SDS011;27912;51.828;5.688;2023-04-06T04:37:43;20.42;;;11.10;;
42244;SDS011;27912;51.828;5.688;2023-04-06T04:40:09;23.25;;;12.25;;
42244;SDS011;27912;51.828;5.688;2023-04-06T04:42:35;24.58;;;12.50;;
42244;SDS011;27912;51.828;5.688;2023-04-06T04:45:01;22.55;;;12.32;;
42244;SDS011;27912;51.828;5.688;2023-04-06T04:47:26;22.33;;;12.07;;
42244;SDS011;27912;51.828;5.688;2023-04-06T04:49:52;21.27;;;11.50;;
42244;SDS011;27912;51.828;5.688;2023-04-06T04:52:17;22.33;;;11.75;;
42244;SDS011;27912;51.828;5.688;2023-04-06T04:54:43;28.40;;;13.27;;
42244;SDS011;27912;51.828;5.688;2023-04-06T04:57:08;26.55;;;13.27;;
42244;SDS011;27912;51.828;5.688;2023-04-06T04:59:34;26.52;;;13.15;;
42244;SDS011;27912;51.828;5.688;2023-04-06T05:02:00;28.25;;;13.85;;
42244;SDS011;27912;51.828;5.688;2023-04-06T05:04:26;25.52;;;12.77;;
42244;SDS011;27912;51.828;5.688;2023-04-06T05:07:01;28.08;;;13.75;;
42244;SDS011;27912;51.828;5.688;2023-04-06T05:09:29;24.42;;;13.15;;
42244;SDS011;27912;51.828;5.688;2023-04-06T05:11:55;25.40;;;13.85;;
42244;SDS011;27912;51.828;5.688;2023-04-06T05:14:21;25.77;;;12.55;;
42244;SDS011;27912;51.828;5.688;2023-04-06T05:16:46;26.38;;;15.18;;
42244;SDS011;27912;51.828;5.688;2023-04-06T05:19:12;21.73;;;13.00;;
42244;SDS011;27912;51.828;5.688;2023-04-06T05:21:37;26.92;;;13.82;;
42244;SDS011;27912;51.828;5.688;2023-04-06T05:24:03;28.45;;;13.63;;
42244;SDS011;27912;51.828;5.688;2023-04-06T05:26:28;22.13;;;13.15;;
42244;SDS011;27912;51.828;5.688;2023-04-06T05:28:54;25.80;;;14.15;;
42244;SDS011;27912;51.828;5.688;2023-04-06T05:31:20;25.25;;;13.55;;
42244;SDS011;27912;51.828;5.688;2023-04-06T05:33:45;26.17;;;14.23;;
42244;SDS011;27912;51.828;5.688;2023-04-06T05:36:11;27.75;;;15.13;;
42244;SDS011;27912;51.828;5.688;2023-04-06T05:38:36;21.77;;;12.38;;
42244;SDS011;27912;51.828;5.688;2023-04-06T05:41:02;25.75;;;13.60;;
42244;SDS011;27912;51.828;5.688;2023-04-06T05:43:28;24.60;;;14.23;;
42244;SDS011;27912;51.828;5.688;2023-04-06T05:45:53;26.25;;;14.68;;
42244;SDS011;27912;51.828;5.688;2023-04-06T05:48:19;26.02;;;13.82;;
42244;SDS011;27912;51.828;5.688;2023-04-06T05:50:48;26.58;;;13.95;;
42244;SDS011;27912;51.828;5.688;2023-04-06T05:53:15;29.65;;;14.73;;
42244;SDS011;27912;51.828;5.688;2023-04-06T05:55:41;26.60;;;13.43;;
42244;SDS011;27912;51.828;5.688;2023-04-06T05:58:06;30.25;;;15.07;;
42244;SDS011;27912;51.828;5.688;2023-04-06T06:00:32;25.58;;;14.88;;
42244;SDS011;27912;51.828;5.688;2023-04-06T06:02:58;24.23;;;13.68;;
42244;SDS011;27912;51.828;5.688;2023-04-06T06:05:23;26.33;;;14.57;;
42244;SDS011;27912;51.828;5.688;2023-04-06T06:07:49;29.77;;;14.90;;
42244;SDS011;27912;51.828;5.688;2023-04-06T06:10:15;28.98;;;14.82;;
42244;SDS011;27912;51.828;5.688;2023-04-06T06:12:40;30.70;;;14.73;;
42244;SDS011;27912;51.828;5.688;2023-04-06T06:15:06;25.67;;;14.63;;
42244;SDS011;27912;51.828;5.688;2023-04-06T06:17:32;32.00;;;16.13;;
42244;SDS011;27912;51.828;5.688;2023-04-06T06:19:58;29.90;;;15.10;;
42244;SDS011;27912;51.828;5.688;2023-04-06T06:22:24;26.73;;;14.80;;
42244;SDS011;27912;51.828;5.688;2023-04-06T06:24:50;25.05;;;14.32;;
42244;SDS011;27912;51.828;5.688;2023-04-06T06:27:16;23.52;;;14.00;;
42244;SDS011;27912;51.828;5.688;2023-04-06T06:29:41;30.38;;;15.70;;
42244;SDS011;27912;51.828;5.688;2023-04-06T06:32:07;30.52;;;16.50;;
42244;SDS011;27912;51.828;5.688;2023-04-06T06:34:34;30.17;;;15.18;;
42244;SDS011;27912;51.828;5.688;2023-04-06T06:37:00;27.52;;;15.27;;
42244;SDS011;27912;51.828;5.688;2023-04-06T06:39:27;26.38;;;14.73;;
42244;SDS011;27912;51.828;5.688;2023-04-06T06:41:53;28.65;;;15.77;;
42244;SDS011;27912;51.828;5.688;2023-04-06T06:44:22;28.90;;;14.38;;
42244;SDS011;27912;51.828;5.688;2023-04-06T06:46:47;26.42;;;14.45;;
42244;SDS011;27912;51.828;5.688;2023-04-06T06:49:13;22.88;;;13.95;;
42244;SDS011;27912;51.828;5.688;2023-04-06T06:51:39;30.08;;;17.23;;
42244;SDS011;27912;51.828;5.688;2023-04-06T06:54:05;27.13;;;15.00;;
42244;SDS011;27912;51.828;5.688;2023-04-06T06:56:31;27.98;;;15.75;;
42244;SDS011;27912;51.828;5.688;2023-04-06T06:58:56;27.80;;;15.60;;
42244;SDS011;27912;51.828;5.688;2023-04-06T07:01:22;24.40;;;14.38;;
42244;SDS011;27912;51.828;5.688;2023-04-06T07:03:48;25.58;;;15.50;;
42244;SDS011;27912;51.828;5.688;2023-04-06T07:06:13;30.75;;;15.68;;
42244;SDS011;27912;51.828;5.688;2023-04-06T07:08:39;27.55;;;15.95;;
42244;SDS011;27912;51.828;5.688;2023-04-06T07:11:05;32.10;;;15.20;;
42244;SDS011;27912;51.828;5.688;2023-04-06T07:13:30;26.30;;;15.25;;
42244;SDS011;27912;51.828;5.688;2023-04-06T07:15:56;30.70;;;16.52;;
42244;SDS011;27912;51.828;5.688;2023-04-06T07:18:22;29.65;;;16.33;;
42244;SDS011;27912;51.828;5.688;2023-04-06T07:20:48;26.77;;;15.07;;
42244;SDS011;27912;51.828;5.688;2023-04-06T07:23:13;28.27;;;16.60;;
42244;SDS011;27912;51.828;5.688;2023-04-06T07:25:39;29.08;;;17.17;;
42244;SDS011;27912;51.828;5.688;2023-04-06T07:28:05;25.73;;;15.23;;
42244;SDS011;27912;51.828;5.688;2023-04-06T07:30:30;26.70;;;15.98;;
42244;SDS011;27912;51.828;5.688;2023-04-06T07:32:56;26.98;;;15.80;;
42244;SDS011;27912;51.828;5.688;2023-04-06T07:35:23;26.00;;;15.52;;
42244;SDS011;27912;51.828;5.688;2023-04-06T07:37:51;29.05;;;15.93;;
42244;SDS011;27912;51.828;5.688;2023-04-06T07:40:19;28.10;;;17.02;;
42244;SDS011;27912;51.828;5.688;2023-04-06T07:42:45;28.23;;;16.50;;
42244;SDS011;27912;51.828;5.688;2023-04-06T07:45:11;25.45;;;15.02;;
42244;SDS011;27912;51.828;5.688;2023-04-06T07:47:37;31.42;;;17.88;;
42244;SDS011;27912;51.828;5.688;2023-04-06T07:50:02;28.58;;;15.98;;
42244;SDS011;27912;51.828;5.688;2023-04-06T07:52:28;27.35;;;15.75;;
42244;SDS011;27912;51.828;5.688;2023-04-06T07:54:55;24.85;;;14.88;;
42244;SDS011;27912;51.828;5.688;2023-04-06T07:57:20;25.30;;;15.65;;
42244;SDS011;27912;51.828;5.688;2023-04-06T07:59:46;26.60;;;15.57;;
42244;SDS011;27912;51.828;5.688;2023-04-06T08:02:11;27.33;;;15.27;;
42244;SDS011;27912;51.828;5.688;2023-04-06T08:04:37;25.30;;;15.18;;
42244;SDS011;27912;51.828;5.688;2023-04-06T08:07:02;23.60;;;15.10;;
42244;SDS011;27912;51.828;5.688;2023-04-06T08:09:28;23.70;;;14.57;;
42244;SDS011;27912;51.828;5.688;2023-04-06T08:11:54;26.92;;;14.70;;
42244;SDS011;27912;51.828;5.688;2023-04-06T08:14:19;25.23;;;15.00;;
42244;SDS011;27912;51.828;5.688;2023-04-06T08:16:45;24.35;;;14.20;;
42244;SDS011;27912;51.828;5.688;2023-04-06T08:19:11;27.52;;;15.35;;
42244;SDS011;27912;51.828;5.688;2023-04-06T08:21:37;25.52;;;15.05;;
42244;SDS011;27912;51.828;5.688;2023-04-06T08:24:02;24.77;;;14.90;;
42244;SDS011;27912;51.828;5.688;2023-04-06T08:26:28;25.80;;;14.65;;
42244;SDS011;27912;51.828;5.688;2023-04-06T08:28:54;27.38;;;15.77;;
42244;SDS011;27912;51.828;5.688;2023-04-06T08:31:19;25.10;;;14.18;;
42244;SDS011;27912;51.828;5.688;2023-04-06T08:33:45;28.20;;;15.63;;
42244;SDS011;27912;51.828;5.688;2023-04-06T08:36:11;21.80;;;14.38;;
42244;SDS011;27912;51.828;5.688;2023-04-06T08:38:38;30.10;;;16.00;;
42244;SDS011;27912;51.828;5.688;2023-04-06T08:41:11;28.85;;;13.82;;
42244;SDS011;27912;51.828;5.688;2023-04-06T08:43:42;25.13;;;14.90;;
42244;SDS011;27912;51.828;5.688;2023-04-06T08:46:25;24.00;;;13.77;;
42244;SDS011;27912;51.828;5.688;2023-04-06T08:48:54;24.42;;;15.70;;
42244;SDS011;27912;51.828;5.688;2023-04-06T08:51:20;26.52;;;15.88;;
42244;SDS011;27912;51.828;5.688;2023-04-06T08:53:49;22.52;;;14.30;;
42244;SDS011;27912;51.828;5.688;2023-04-06T08:56:15;27.30;;;16.23;;
42244;SDS011;27912;51.828;5.688;2023-04-06T08:58:40;25.25;;;15.95;;
42244;SDS011;27912;51.828;5.688;2023-04-06T09:01:08;25.65;;;15.13;;
42244;SDS011;27912;51.828;5.688;2023-04-06T09:03:39;27.08;;;15.85;;
42244;SDS011;27912;51.828;5.688;2023-04-06T09:06:06;25.02;;;16.48;;
42244;SDS011;27912;51.828;5.688;2023-04-06T09:08:32;24.80;;;15.30;;
42244;SDS011;27912;51.828;5.688;2023-04-06T09:11:00;33.85;;;15.93;;
42244;SDS011;27912;51.828;5.688;2023-04-06T09:13:27;31.27;;;17.30;;
42244;SDS011;27912;51.828;5.688;2023-04-06T09:16:00;23.75;;;15.20;;
42244;SDS011;27912;51.828;5.688;2023-04-06T09:18:30;22.40;;;14.98;;
42244;SDS011;27912;51.828;5.688;2023-04-06T09:20:57;25.83;;;14.93;;
42244;SDS011;27912;51.828;5.688;2023-04-06T09:23:30;27.52;;;16.65;;
42244;SDS011;27912;51.828;5.688;2023-04-06T09:28:43;29.95;;;16.00;;
42244;SDS011;27912;51.828;5.688;2023-04-06T09:31:11;26.23;;;15.18;;
42244;SDS011;27912;51.828;5.688;2023-04-06T09:33:38;26.73;;;15.13;;
42244;SDS011;27912;51.828;5.688;2023-04-06T09:36:09;28.73;;;14.80;;
42244;SDS011;27912;51.828;5.688;2023-04-06T09:38:38;26.67;;;14.63;;
42244;SDS011;27912;51.828;5.688;2023-04-06T09:41:20;24.55;;;14.65;;
42244;SDS011;27912;51.828;5.688;2023-04-06T09:43:47;24.27;;;13.75;;
42244;SDS011;27912;51.828;5.688;2023-04-06T09:46:12;23.75;;;13.93;;
42244;SDS011;27912;51.828;5.688;2023-04-06T09:48:39;23.27;;;13.93;;
42244;SDS011;27912;51.828;5.688;2023-04-06T09:51:05;25.08;;;14.75;;
42244;SDS011;27912;51.828;5.688;2023-04-06T09:53:34;21.65;;;14.00;;
42244;SDS011;27912;51.828;5.688;2023-04-06T09:56:03;24.17;;;14.52;;
42244;SDS011;27912;51.828;5.688;2023-04-06T09:58:34;22.88;;;14.50;;
42244;SDS011;27912;51.828;5.688;2023-04-06T10:03:49;23.60;;;12.98;;
42244;SDS011;27912;51.828;5.688;2023-04-06T10:06:26;22.05;;;14.05;;
42244;SDS011;27912;51.828;5.688;2023-04-06T10:08:53;21.02;;;12.90;;
42244;SDS011;27912;51.828;5.688;2023-04-06T10:11:21;20.85;;;13.10;;
42244;SDS011;27912;51.828;5.688;2023-04-06T10:13:47;22.13;;;13.25;;
42244;SDS011;27912;51.828;5.688;2023-04-06T10:16:14;21.58;;;13.30;;
42244;SDS011;27912;51.828;5.688;2023-04-06T10:18:41;21.73;;;13.43;;
42244;SDS011;27912;51.828;5.688;2023-04-06T10:21:12;19.23;;;12.23;;
42244;SDS011;27912;51.828;5.688;2023-04-06T10:23:49;20.08;;;11.73;;
42244;SDS011;27912;51.828;5.688;2023-04-06T10:26:19;19.95;;;12.95;;
42244;SDS011;27912;51.828;5.688;2023-04-06T10:28:45;19.05;;;11.82;;
42244;SDS011;27912;51.828;5.688;2023-04-06T10:31:12;19.92;;;12.25;;
42244;SDS011;27912;51.828;5.688;2023-04-06T10:33:38;20.67;;;12.63;;
42244;SDS011;27912;51.828;5.688;2023-04-06T10:36:12;21.20;;;12.57;;
42244;SDS011;27912;51.828;5.688;2023-04-06T10:38:46;19.83;;;13.30;;
42244;SDS011;27912;51.828;5.688;2023-04-06T10:41:12;19.65;;;12.07;;
42244;SDS011;27912;51.828;5.688;2023-04-06T10:43:39;18.70;;;12.25;;
42244;SDS011;27912;51.828;5.688;2023-04-06T10:46:06;18.17;;;10.85;;
42244;SDS011;27912;51.828;5.688;2023-04-06T10:48:51;18.00;;;10.82;;
42244;SDS011;27912;51.828;5.688;2023-04-06T10:51:17;19.60;;;11.70;;
42244;SDS011;27912;51.828;5.688;2023-04-06T10:53:44;15.77;;;10.25;;
42244;SDS011;27912;51.828;5.688;2023-04-06T10:56:15;13.65;;;8.95;;
42244;SDS011;27912;51.828;5.688;2023-04-06T10:58:44;12.48;;;8.63;;
42244;SDS011;27912;51.828;5.688;2023-04-06T11:01:14;14.27;;;8.55;;
42244;SDS011;27912;51.828;5.688;2023-04-06T11:03:45;14.73;;;9.07;;
42244;SDS011;27912;51.828;5.688;2023-04-06T11:06:17;16.50;;;9.80;;
42244;SDS011;27912;51.828;5.688;2023-04-06T11:08:43;10.88;;;7.70;;
42244;SDS011;27912;51.828;5.688;2023-04-06T11:11:12;13.80;;;8.60;;
42244;SDS011;27912;51.828;5.688;2023-04-06T11:13:49;13.18;;;8.80;;
42244;SDS011;27912;51.828;5.688;2023-04-06T11:16:16;13.73;;;8.68;;
42244;SDS011;27912;51.828;5.688;2023-04-06T11:18:49;14.60;;;9.10;;
42244;SDS011;27912;51.828;5.688;2023-04-06T11:21:30;14.02;;;9.10;;
42244;SDS011;27912;51.828;5.688;2023-04-06T11:24:22;16.90;;;9.70;;
42244;SDS011;27912;51.828;5.688;2023-04-06T11:26:56;14.57;;;8.73;;
42244;SDS011;27912;51.828;5.688;2023-04-06T11:29:26;14.32;;;9.05;;
42244;SDS011;27912;51.828;5.688;2023-04-06T11:32:03;11.77;;;7.90;;
42244;SDS011;27912;51.828;5.688;2023-04-06T11:34:36;11.20;;;7.18;;
42244;SDS011;27912;51.828;5.688;2023-04-06T11:37:04;11.05;;;7.10;;
42244;SDS011;27912;51.828;5.688;2023-04-06T11:39:37;11.30;;;6.95;;
42244;SDS011;27912;51.828;5.688;2023-04-06T11:42:24;10.93;;;7.07;;
42244;SDS011;27912;51.828;5.688;2023-04-06T11:44:51;9.60;;;5.95;;
42244;SDS011;27912;51.828;5.688;2023-04-06T11:47:19;9.90;;;5.68;;
42244;SDS011;27912;51.828;5.688;2023-04-06T11:49:51;8.73;;;5.68;;
42244;SDS011;27912;51.828;5.688;2023-04-06T11:52:21;9.52;;;5.40;;
42244;SDS011;27912;51.828;5.688;2023-04-06T11:54:49;7.35;;;4.18;;
42244;SDS011;27912;51.828;5.688;2023-04-06T11:57:16;8.68;;;4.70;;
42244;SDS011;27912;51.828;5.688;2023-04-06T11:59:42;8.02;;;4.25;;
42244;SDS011;27912;51.828;5.688;2023-04-06T12:02:08;9.43;;;5.18;;
42244;SDS011;27912;51.828;5.688;2023-04-06T12:04:34;7.05;;;4.30;;
42244;SDS011;27912;51.828;5.688;2023-04-06T12:07:00;8.45;;;4.15;;
42244;SDS011;27912;51.828;5.688;2023-04-06T12:09:26;7.45;;;4.32;;
42244;SDS011;27912;51.828;5.688;2023-04-06T12:11:51;8.18;;;4.18;;
42244;SDS011;27912;51.828;5.688;2023-04-06T12:14:17;7.05;;;3.95;;
42244;SDS011;27912;51.828;5.688;2023-04-06T12:16:42;11.32;;;5.35;;
42244;SDS011;27912;51.828;5.688;2023-04-06T12:19:08;7.93;;;4.40;;
42244;SDS011;27912;51.828;5.688;2023-04-06T12:21:34;7.20;;;4.07;;
42244;SDS011;27912;51.828;5.688;2023-04-06T12:24:02;8.43;;;4.50;;
42244;SDS011;27912;51.828;5.688;2023-04-06T12:26:29;7.13;;;4.13;;
42244;SDS011;27912;51.828;5.688;2023-04-06T12:28:55;9.32;;;4.47;;
42244;SDS011;27912;51.828;5.688;2023-04-06T12:31:21;10.07;;;4.05;;
42244;SDS011;27912;51.828;5.688;2023-04-06T12:33:48;8.35;;;4.20;;
42244;SDS011;27912;51.828;5.688;2023-04-06T12:36:15;8.73;;;5.28;;
42244;SDS011;27912;51.828;5.688;2023-04-06T12:38:43;8.18;;;5.18;;
42244;SDS011;27912;51.828;5.688;2023-04-06T12:41:10;10.20;;;4.63;;
42244;SDS011;27912;51.828;5.688;2023-04-06T12:43:36;6.40;;;3.65;;
42244;SDS011;27912;51.828;5.688;2023-04-06T12:46:02;9.68;;;5.10;;
42244;SDS011;27912;51.828;5.688;2023-04-06T12:48:27;8.45;;;4.72;;
42244;SDS011;27912;51.828;5.688;2023-04-06T12:50:57;11.90;;;5.30;;
42244;SDS011;27912;51.828;5.688;2023-04-06T12:53:23;9.45;;;4.85;;
42244;SDS011;27912;51.828;5.688;2023-04-06T12:55:49;8.35;;;4.90;;
42244;SDS011;27912;51.828;5.688;2023-04-06T12:58:15;9.57;;;5.65;;
42244;SDS011;27912;51.828;5.688;2023-04-06T13:00:41;9.18;;;6.10;;
42244;SDS011;27912;51.828;5.688;2023-04-06T13:03:07;8.57;;;5.20;;
42244;SDS011;27912;51.828;5.688;2023-04-06T13:05:32;11.07;;;5.72;;
42244;SDS011;27912;51.828;5.688;2023-04-06T13:07:58;9.50;;;5.28;;
42244;SDS011;27912;51.828;5.688;2023-04-06T13:10:23;10.90;;;5.20;;
42244;SDS011;27912;51.828;5.688;2023-04-06T13:12:49;8.95;;;6.07;;
42244;SDS011;27912;51.828;5.688;2023-04-06T13:15:15;10.50;;;5.55;;
42244;SDS011;27912;51.828;5.688;2023-04-06T13:17:41;9.80;;;5.45;;
42244;SDS011;27912;51.828;5.688;2023-04-06T13:20:07;9.45;;;5.65;;
42244;SDS011;27912;51.828;5.688;2023-04-06T13:22:33;8.85;;;5.07;;
42244;SDS011;27912;51.828;5.688;2023-04-06T13:24:59;9.38;;;5.78;;
42244;SDS011;27912;51.828;5.688;2023-04-06T13:27:25;13.32;;;5.72;;
42244;SDS011;27912;51.828;5.688;2023-04-06T13:29:52;12.50;;;6.35;;
42244;SDS011;27912;51.828;5.688;2023-04-06T13:32:18;11.27;;;5.95;;
42244;SDS011;27912;51.828;5.688;2023-04-06T13:34:43;10.90;;;6.32;;
42244;SDS011;27912;51.828;5.688;2023-04-06T13:37:10;13.07;;;7.30;;
42244;SDS011;27912;51.828;5.688;2023-04-06T13:39:37;10.85;;;7.10;;
42244;SDS011;27912;51.828;5.688;2023-04-06T13:42:02;15.18;;;7.28;;
42244;SDS011;27912;51.828;5.688;2023-04-06T13:44:28;10.70;;;6.43;;
42244;SDS011;27912;51.828;5.688;2023-04-06T13:46:55;10.73;;;7.05;;
42244;SDS011;27912;51.828;5.688;2023-04-06T13:49:23;10.15;;;6.60;;
42244;SDS011;27912;51.828;5.688;2023-04-06T13:51:48;12.38;;;6.85;;
42244;SDS011;27912;51.828;5.688;2023-04-06T13:54:14;15.77;;;9.13;;
42244;SDS011;27912;51.828;5.688;2023-04-06T13:56:39;13.88;;;7.28;;
42244;SDS011;27912;51.828;5.688;2023-04-06T13:59:08;14.63;;;8.68;;
42244;SDS011;27912;51.828;5.688;2023-04-06T14:01:34;10.63;;;6.97;;
42244;SDS011;27912;51.828;5.688;2023-04-06T14:03:59;13.55;;;8.15;;
42244;SDS011;27912;51.828;5.688;2023-04-06T14:06:25;10.48;;;7.05;;
42244;SDS011;27912;51.828;5.688;2023-04-06T14:08:51;13.07;;;8.23;;
42244;SDS011;27912;51.828;5.688;2023-04-06T14:11:16;11.90;;;7.53;;
42244;SDS011;27912;51.828;5.688;2023-04-06T14:13:42;15.40;;;9.02;;
42244;SDS011;27912;51.828;5.688;2023-04-06T14:16:08;14.95;;;8.20;;
42244;SDS011;27912;51.828;5.688;2023-04-06T14:18:35;13.70;;;7.45;;
42244;SDS011;27912;51.828;5.688;2023-04-06T14:21:01;14.73;;;7.90;;
42244;SDS011;27912;51.828;5.688;2023-04-06T14:23:27;17.35;;;9.20;;
42244;SDS011;27912;51.828;5.688;2023-04-06T14:28:32;13.65;;;9.02;;
42244;SDS011;27912;51.828;5.688;2023-04-06T14:30:59;13.32;;;7.95;;
42244;SDS011;27912;51.828;5.688;2023-04-06T14:33:26;13.35;;;7.88;;